Time;durP1;ratioP1;P1;durP2;ratioP2;P2;SDS_P1;SDS_P2;PMS_P1;PMS_P2;Temp;Humidity;BMP_temperature;BMP_pressure;BME280_temperature;BME280_humidity;BME280_pressure;Samples;Min_cycle;Max_cycle;Signal;HPM_P1;HPM_P2
2021/05/11 00:00:46;;;;;;;4.45;2.90;;;;;;;13.87;76.38;99137.22;2209892;40;20038;-79
2021/05/11 00:02:19;;;;;;;4.78;2.97;;;;;;;13.98;75.98;99129.72;2210227;40;20046;-79
2021/05/11 00:03:51;;;;;;;4.20;2.70;;;;;;;14.05;75.87;99130.59;2210028;40;20071;-79
2021/05/11 00:05:27;;;;;;;6.90;2.90;;;;;;;14.10;75.56;99121.97;2210258;40;20053;-80
2021/05/11 00:06:58;;;;;;;6.47;4.00;;;;;;;14.11;75.43;99118.25;2217141;40;20038;-79
2021/05/11 00:08:29;;;;;;;4.65;2.95;;;;;;;14.17;75.24;99112.13;2210235;40;20029;-79
2021/05/11 00:10:01;;;;;;;4.90;2.97;;;;;;;14.23;75.07;99114.03;2210715;40;20038;-80
2021/05/11 00:11:32;;;;;;;4.85;2.97;;;;;;;14.29;74.86;99107.06;2214943;40;20041;-79
2021/05/11 00:13:04;;;;;;;5.47;3.03;;;;;;;14.33;74.44;99101.09;2197911;40;20077;-79
2021/05/11 00:14:35;;;;;;;5.10;3.38;;;;;;;14.35;74.47;99099.06;2208405;40;20049;-80
2021/05/11 00:16:07;;;;;;;5.45;3.25;;;;;;;14.33;74.44;99089.53;2216118;40;20049;-80
2021/05/11 00:17:39;;;;;;;6.20;3.55;;;;;;;14.32;74.63;99082.50;2215607;40;20072;-80
2021/05/11 00:19:12;;;;;;;4.30;2.90;;;;;;;14.31;74.73;99086.19;2216767;40;20034;-80
2021/05/11 00:20:44;;;;;;;5.95;3.72;;;;;;;14.29;74.79;99090.94;2218909;40;20595;-79
2021/05/11 00:22:15;;;;;;;5.00;3.42;;;;;;;14.29;75.01;99099.84;2217543;40;20033;-80
2021/05/11 00:23:47;;;;;;;5.90;3.60;;;;;;;14.31;74.71;99099.63;2218904;40;20071;-80
2021/05/11 00:25:18;;;;;;;5.60;3.78;;;;;;;14.32;74.56;99088.69;2223036;40;20613;-79
2021/05/11 00:26:49;;;;;;;6.93;4.55;;;;;;;14.34;74.59;99080.44;2218391;40;20061;-80
2021/05/11 00:28:20;;;;;;;7.18;5.63;;;;;;;14.35;74.68;99088.31;2217264;40;20354;-79
2021/05/11 00:29:51;;;;;;;6.35;4.93;;;;;;;14.34;74.88;99089.34;2217314;40;20048;-79
2021/05/11 00:31:23;;;;;;;6.95;5.15;;;;;;;14.30;74.85;99085.38;2219874;40;20098;-80
2021/05/11 00:32:54;;;;;;;7.38;4.90;;;;;;;14.24;74.94;99079.94;2219471;40;20052;-79
2021/05/11 00:34:25;;;;;;;5.72;4.15;;;;;;;14.23;75.18;99080.97;2217425;40;20052;-79
2021/05/11 00:35:58;;;;;;;6.50;4.60;;;;;;;14.26;75.09;99085.97;2217200;40;20037;-80
2021/05/11 00:37:28;;;;;;;5.63;4.40;;;;;;;14.29;74.90;99082.88;2217655;40;20128;-80
2021/05/11 00:39:00;;;;;;;4.80;3.00;;;;;;;14.31;74.75;99083.50;2219254;40;20053;-79
2021/05/11 00:40:31;;;;;;;5.53;4.22;;;;;;;14.37;74.59;99077.34;2218161;40;20025;-79
2021/05/11 00:42:03;;;;;;;6.47;5.28;;;;;;;14.37;74.66;99074.66;2214349;40;20040;-79
2021/05/11 00:43:41;;;;;;;7.35;4.85;;;;;;;14.34;74.47;99073.19;2222805;40;20053;-79
2021/05/11 00:45:13;;;;;;;8.48;5.70;;;;;;;14.28;74.82;99075.81;2214316;40;20683;-79
2021/05/11 00:46:53;;;;;;;7.78;5.53;;;;;;;14.19;75.14;99088.56;2223361;40;20095;-79
2021/05/11 00:48:24;;;;;;;8.73;5.80;;;;;;;14.10;75.34;99079.78;2217889;40;20053;-79
2021/05/11 00:49:55;;;;;;;7.97;5.72;;;;;;;14.08;75.50;99089.06;2221202;40;20615;-79
2021/05/11 00:51:27;;;;;;;8.30;6.85;;;;;;;14.06;75.69;99088.44;2216470;40;20038;-79
2021/05/11 00:52:59;;;;;;;7.93;5.53;;;;;;;13.98;75.94;99086.72;2217061;40;20025;-79
2021/05/11 00:54:31;;;;;;;6.75;5.35;;;;;;;13.93;76.11;99081.06;2217891;40;20029;-79
2021/05/11 00:56:02;;;;;;;8.27;6.03;;;;;;;13.89;76.30;99084.13;2218177;40;20033;-79
2021/05/11 00:57:35;;;;;;;7.80;5.53;;;;;;;13.88;76.66;99066.38;2217374;40;20048;-79
2021/05/11 00:59:11;;;;;;;7.57;5.65;;;;;;;13.92;76.46;99071.34;2216286;40;20049;-79
2021/05/11 01:00:42;;;;;;;6.88;5.35;;;;;;;13.98;76.34;99070.59;2214829;40;20146;-79
2021/05/11 01:02:13;;;;;;;7.80;5.85;;;;;;;14.03;76.25;99073.53;2221007;40;20033;-79
2021/05/11 01:03:45;;;;;;;9.68;7.32;;;;;;;14.04;76.16;99067.13;2215932;40;20053;-79
2021/05/11 01:05:16;;;;;;;8.40;7.20;;;;;;;13.96;76.31;99062.69;2215641;40;20044;-81
2021/05/11 01:06:49;;;;;;;9.13;7.55;;;;;;;13.89;76.71;99057.25;2219192;40;20032;-79
2021/05/11 01:08:20;;;;;;;9.80;7.38;;;;;;;13.86;76.83;99068.41;2215320;40;20046;-79
2021/05/11 01:09:52;;;;;;;9.18;7.07;;;;;;;13.84;77.11;99064.22;2219708;40;20054;-80
2021/05/11 01:11:23;;;;;;;8.45;6.60;;;;;;;13.81;77.16;99059.25;2215061;40;20038;-79
2021/05/11 01:12:54;;;;;;;8.65;6.75;;;;;;;13.79;76.90;99062.09;2219582;40;20533;-79
2021/05/11 01:14:26;;;;;;;10.02;7.93;;;;;;;13.74;77.27;99056.47;2215446;40;20029;-79
2021/05/11 01:15:57;;;;;;;9.55;7.47;;;;;;;13.70;77.46;99058.72;2219747;40;20033;-79
2021/05/11 01:17:31;;;;;;;8.60;6.70;;;;;;;13.72;77.40;99058.50;2215990;40;20076;-79
2021/05/11 01:19:10;;;;;;;9.13;7.15;;;;;;;13.71;77.36;99043.41;2213744;40;20132;-79
2021/05/11 01:20:43;;;;;;;8.88;6.85;;;;;;;13.70;77.34;99047.97;2212424;40;20054;-79
2021/05/11 01:24:13;;;;;;;9.98;7.00;;;;;;;13.65;77.42;99045.00;2188484;40;20039;-79
2021/05/11 01:25:46;;;;;;;8.50;6.95;;;;;;;13.65;77.57;99055.75;2203833;40;20357;-79
2021/05/11 01:27:29;;;;;;;10.45;8.07;;;;;;;13.62;77.81;99055.28;2215794;40;20218;-80
2021/05/11 01:29:11;;;;;;;10.07;8.60;;;;;;;13.57;77.96;99059.41;2218276;40;20629;-79
2021/05/11 01:31:07;;;;;;;10.23;8.07;;;;;;;13.56;78.04;99062.25;2216742;40;20081;-79
2021/05/11 01:44:03;;;;;;;13.23;9.40;;;;;;;13.80;76.91;99036.91;2189391;40;20071;-80
2021/05/11 01:49:19;;;;;;;9.82;7.70;;;;;;;13.73;77.67;99019.91;2204784;40;20050;-79
2021/05/11 01:50:57;;;;;;;7.90;6.40;;;;;;;13.80;77.43;99020.78;2213775;40;20096;-80
2021/05/11 01:52:38;;;;;;;9.63;7.53;;;;;;;13.89;77.23;99018.81;2223228;40;20089;-79
2021/05/11 01:54:29;;;;;;;9.00;6.80;;;;;;;13.95;77.01;99017.22;2216927;40;20676;-79
2021/05/11 01:56:20;;;;;;;;;;;;;;;13.95;76.95;99010.00;2211579;40;20041;-80
2021/05/11 02:18:29;;;;;;;12.75;9.70;;;;;;;14.08;76.27;99000.41;2219319;40;20048;-79
2021/05/11 02:23:58;;;;;;;13.68;10.32;;;;;;;13.71;77.38;99011.19;2182251;40;20048;-80
2021/05/11 02:25:30;;;;;;;12.60;9.77;;;;;;;13.63;77.87;99032.78;2179416;40;20057;-79
2021/05/11 02:27:21;;;;;;;15.27;12.00;;;;;;;13.55;78.01;99055.25;2149206;40;20038;-81
2021/05/11 02:29:28;;;;;;;13.40;10.63;;;;;;;13.47;78.27;99053.50;2184444;40;20239;-80
2021/05/11 02:35:35;;;;;;;15.27;11.70;;;;;;;13.46;78.85;99043.78;2152087;41;20038;-79
2021/05/11 02:45:56;;;;;;;15.77;11.13;;;;;;;13.26;79.61;99047.00;2134475;41;20040;-79
2021/05/11 02:47:28;;;;;;;16.58;13.02;;;;;;;13.26;79.72;99047.00;2186030;40;20088;-80
2021/05/11 02:48:59;;;;;;;13.45;10.18;;;;;;;13.29;79.82;99042.28;2203853;40;20033;-78
2021/05/11 02:50:31;;;;;;;16.88;12.75;;;;;;;13.34;79.57;99034.50;2221179;40;20050;-79
2021/05/11 02:52:03;;;;;;;15.02;11.82;;;;;;;13.32;79.71;99026.63;2222031;40;20022;-78
2021/05/11 02:53:34;;;;;;;17.77;13.30;;;;;;;13.34;79.74;99027.28;2220900;40;20036;-79
2021/05/11 02:55:05;;;;;;;16.88;12.02;;;;;;;13.39;79.72;99024.88;2219687;40;20124;-79
2021/05/11 02:56:37;;;;;;;14.50;11.05;;;;;;;13.45;79.52;99027.84;2222516;40;20040;-79
2021/05/11 02:58:11;;;;;;;13.13;9.40;;;;;;;13.51;79.46;99019.03;2221901;40;20022;-79
2021/05/11 02:59:43;;;;;;;17.77;12.27;;;;;;;13.56;79.30;99014.78;2221652;40;20559;-80
2021/05/11 03:01:15;;;;;;;18.20;13.18;;;;;;;13.61;79.10;99024.94;2222191;40;20052;-78
2021/05/11 03:02:46;;;;;;;16.30;10.63;;;;;;;13.58;78.92;99028.00;2219549;40;20045;-80
2021/05/11 03:04:17;;;;;;;19.33;13.18;;;;;;;13.54;79.05;99032.91;2222009;40;20161;-79
2021/05/11 03:05:49;;;;;;;20.70;13.88;;;;;;;13.55;79.22;99029.22;2221377;40;20045;-79
2021/05/11 03:07:19;;;;;;;21.92;14.95;;;;;;;13.54;79.25;99030.22;2222799;40;20104;-79
2021/05/11 03:08:51;;;;;;;22.88;16.52;;;;;;;13.51;79.23;99014.50;2220878;40;20041;-79
2021/05/11 03:10:22;;;;;;;18.52;13.20;;;;;;;13.50;79.42;99018.22;2221158;40;20057;-80
2021/05/11 03:11:54;;;;;;;19.50;13.90;;;;;;;13.52;79.31;99023.38;2219770;40;20029;-79
2021/05/11 03:13:25;;;;;;;20.20;14.63;;;;;;;13.52;79.42;99024.22;2221502;40;20046;-79
2021/05/11 03:14:57;;;;;;;22.15;15.73;;;;;;;13.50;79.31;99020.91;2221028;40;20046;-79
2021/05/11 03:16:30;;;;;;;22.33;14.65;;;;;;;13.52;79.42;99021.53;2221043;40;20026;-78
2021/05/11 03:18:01;;;;;;;24.00;16.73;;;;;;;13.52;79.35;99013.47;2218260;40;20054;-79
2021/05/11 03:19:32;;;;;;;19.17;13.52;;;;;;;13.51;79.59;99001.06;2222167;40;20065;-79
2021/05/11 03:21:04;;;;;;;20.48;14.27;;;;;;;13.57;79.42;99003.00;2220216;40;20025;-79
2021/05/11 03:22:35;;;;;;;22.58;15.77;;;;;;;13.62;79.31;99001.59;2222427;40;20026;-79
2021/05/11 03:24:09;;;;;;;25.13;17.52;;;;;;;13.62;79.24;99012.34;2219752;40;20029;-79
2021/05/11 03:25:41;;;;;;;21.45;15.32;;;;;;;13.56;79.27;99008.56;2220606;40;20032;-80
2021/05/11 03:27:13;;;;;;;20.88;12.98;;;;;;;13.51;79.44;99006.44;2221191;40;20115;-79
2021/05/11 03:28:44;;;;;;;23.52;15.93;;;;;;;13.48;79.45;99009.53;2221469;40;20062;-80
2021/05/11 03:30:16;;;;;;;20.25;15.20;;;;;;;13.47;79.54;99015.91;2219128;40;20116;-79
2021/05/11 03:31:48;;;;;;;24.33;15.75;;;;;;;13.49;79.57;99015.69;2227708;40;20052;-80
2021/05/11 03:33:20;;;;;;;22.30;15.35;;;;;;;13.52;79.62;99012.66;2220139;40;20045;-80
2021/05/11 03:34:51;;;;;;;24.88;17.08;;;;;;;13.54;79.30;99014.13;2221290;40;20040;-80
2021/05/11 03:36:23;;;;;;;25.00;16.27;;;;;;;13.49;79.44;99013.88;2219649;40;20042;-80
2021/05/11 03:37:54;;;;;;;26.45;17.23;;;;;;;13.40;79.57;99015.81;2221737;40;20040;-79
2021/05/11 03:39:26;;;;;;;25.25;18.00;;;;;;;13.37;79.88;99020.69;2218539;40;20041;-80
2021/05/11 03:40:57;;;;;;;24.15;17.00;;;;;;;13.32;80.08;99023.94;2220843;40;20195;-79
2021/05/11 03:42:33;;;;;;;26.30;18.20;;;;;;;13.24;80.32;99022.19;2220070;40;20049;-79
2021/05/11 03:44:08;;;;;;;26.30;17.05;;;;;;;13.19;80.56;99024.63;2221038;40;20185;-80
2021/05/11 03:45:43;;;;;;;25.30;17.38;;;;;;;13.20;80.68;99020.91;2221844;40;20025;-79
2021/05/11 03:47:18;;;;;;;28.15;17.48;;;;;;;13.18;80.72;99016.72;2221733;40;20124;-80
2021/05/11 03:48:49;;;;;;;22.00;15.48;;;;;;;13.20;80.74;99031.66;2219991;40;20137;-80
2021/05/11 03:50:20;;;;;;;23.65;16.15;;;;;;;13.24;80.83;99022.19;2220289;40;20015;-80
2021/05/11 03:51:51;;;;;;;23.20;14.95;;;;;;;13.31;80.62;99005.38;2226016;40;20026;-79
2021/05/11 03:53:23;;;;;;;23.48;15.32;;;;;;;13.39;80.46;98999.91;2222894;40;20065;-79
2021/05/11 03:54:54;;;;;;;26.13;17.00;;;;;;;13.46;80.14;98992.75;2221270;40;20057;-79
2021/05/11 03:56:25;;;;;;;21.75;14.88;;;;;;;13.47;80.16;98989.06;2225246;40;20073;-79
2021/05/11 03:57:56;;;;;;;26.98;17.10;;;;;;;13.54;79.80;98998.00;2222040;40;20087;-80
2021/05/11 03:59:28;;;;;;;29.73;17.98;;;;;;;13.49;79.81;99002.28;2225372;40;20053;-80
2021/05/11 04:00:58;;;;;;;21.70;15.23;;;;;;;13.46;79.96;98991.94;2225371;40;20038;-80
2021/05/11 04:02:31;;;;;;;27.20;18.38;;;;;;;13.47;79.69;98991.75;2221084;40;20030;-80
2021/05/11 04:04:03;;;;;;;21.23;14.20;;;;;;;13.48;79.90;98993.41;2222534;40;20105;-80
2021/05/11 04:05:36;;;;;;;21.23;13.95;;;;;;;13.50;79.80;98986.00;2217717;40;20450;-80
2021/05/11 04:07:07;;;;;;;21.95;15.10;;;;;;;13.53;79.74;98982.09;2222972;40;20032;-79
2021/05/11 04:08:43;;;;;;;25.10;16.38;;;;;;;13.55;79.51;98986.25;2219706;40;20126;-79
2021/05/11 04:10:19;;;;;;;27.17;18.15;;;;;;;13.53;79.58;98985.59;2223937;40;20049;-80
2021/05/11 04:14:17;;;;;;;20.55;15.35;;;;;;;13.56;79.56;98969.13;2217695;40;20057;-79
2021/05/11 04:17:42;;;;;;;21.67;14.07;;;;;;;13.71;78.90;98969.06;2216489;40;20017;-80
2021/05/11 04:19:13;;;;;;;20.33;14.57;;;;;;;13.75;78.88;98968.66;2223228;40;20021;-78
2021/05/11 04:20:46;;;;;;;20.60;14.80;;;;;;;13.78;78.79;98969.16;2221894;40;20033;-79
2021/05/11 04:22:17;;;;;;;20.38;14.73;;;;;;;13.82;78.55;98970.41;2221380;40;20044;-78
2021/05/11 04:23:50;;;;;;;28.13;17.70;;;;;;;13.84;78.43;98976.41;2220552;40;20038;-79
2021/05/11 04:25:22;;;;;;;26.55;17.85;;;;;;;13.88;78.34;98979.56;2222426;40;20030;-79
2021/05/11 04:26:54;;;;;;;21.83;15.30;;;;;;;13.84;78.38;98976.41;2220694;40;20030;-79
2021/05/11 04:28:25;;;;;;;24.85;17.42;;;;;;;13.83;78.19;98969.38;2224005;40;20053;-79
2021/05/11 04:29:59;;;;;;;21.15;15.30;;;;;;;13.78;78.36;98973.66;2220713;40;20041;-80
2021/05/11 04:31:34;;;;;;;20.38;14.45;;;;;;;13.82;78.18;98973.09;2222994;40;20122;-80
2021/05/11 04:33:06;;;;;;;23.25;16.60;;;;;;;13.89;78.22;98973.97;2218404;40;20648;-80
2021/05/11 04:34:38;;;;;;;21.27;14.68;;;;;;;13.95;77.98;98975.06;2225533;40;20061;-80
2021/05/11 04:36:10;;;;;;;21.13;14.52;;;;;;;14.01;77.78;98976.16;2221395;40;20056;-80
2021/05/11 04:37:45;;;;;;;16.70;11.65;;;;;;;14.08;77.55;98981.59;2222245;40;20029;-80
2021/05/11 04:39:17;;;;;;;20.20;13.70;;;;;;;14.11;77.21;98984.72;2221872;40;20032;-80
2021/05/11 04:40:48;;;;;;;15.50;11.75;;;;;;;14.14;77.27;98973.59;2218307;40;20018;-78
2021/05/11 04:42:22;;;;;;;20.45;16.27;;;;;;;14.16;76.90;98976.06;2216852;40;20033;-79
2021/05/11 04:43:54;;;;;;;18.42;13.07;;;;;;;14.11;77.01;98967.78;2223384;40;20028;-79
2021/05/11 04:45:30;;;;;;;21.23;14.70;;;;;;;14.10;76.94;98961.56;2221310;40;20051;-80
2021/05/11 04:49:57;;;;;;;18.77;14.02;;;;;;;14.08;76.85;98965.47;2220977;40;20049;-82
2021/05/11 04:53:26;;;;;;;25.80;16.42;;;;;;;13.85;77.33;98964.66;2222470;40;20040;-79
2021/05/11 04:54:57;;;;;;;25.65;17.80;;;;;;;13.78;77.78;98968.28;2228277;40;20029;-80
2021/05/11 04:56:28;;;;;;;20.33;14.77;;;;;;;13.74;77.96;98967.84;2219093;40;20076;-79
2021/05/11 04:57:59;;;;;;;24.50;17.08;;;;;;;13.71;77.98;98969.06;2221531;40;20045;-79
2021/05/11 04:59:30;;;;;;;22.50;15.50;;;;;;;13.72;78.13;98961.81;2223560;40;20025;-79
2021/05/11 05:01:02;;;;;;;21.90;15.80;;;;;;;13.77;78.09;98963.94;2223442;40;20029;-81
2021/05/11 05:02:34;;;;;;;20.23;14.38;;;;;;;13.80;77.96;98963.56;2222247;40;20048;-79
2021/05/11 05:04:09;;;;;;;17.33;12.38;;;;;;;13.89;77.82;98955.16;2224002;40;20021;-78
2021/05/11 05:05:40;;;;;;;14.82;10.98;;;;;;;13.98;77.56;98963.13;2223562;40;20046;-79
2021/05/11 05:07:12;;;;;;;14.88;10.85;;;;;;;14.04;77.40;98973.09;2222952;40;20029;-79
2021/05/11 05:08:43;;;;;;;18.83;13.20;;;;;;;14.09;77.16;98969.81;2216579;40;20033;-80
2021/05/11 05:10:16;;;;;;;21.88;14.82;;;;;;;14.06;76.91;98983.63;2220171;40;20612;-79
2021/05/11 05:11:47;;;;;;;22.90;15.07;;;;;;;14.01;77.16;98985.06;2221387;40;20033;-78
2021/05/11 05:13:20;;;;;;;19.65;14.65;;;;;;;13.91;77.33;98994.44;2222697;40;20021;-79
2021/05/11 05:14:51;;;;;;;22.63;15.98;;;;;;;13.86;77.69;99001.25;2218183;40;20022;-80
2021/05/11 05:16:22;;;;;;;16.75;12.38;;;;;;;13.88;77.87;99006.41;2217755;40;20042;-79
2021/05/11 05:17:53;;;;;;;22.50;14.98;;;;;;;13.93;77.75;99001.31;2222661;40;20091;-80
2021/05/11 05:19:24;;;;;;;21.13;15.60;;;;;;;13.94;77.64;99000.25;2223930;40;20028;-79
2021/05/11 05:20:57;;;;;;;21.48;15.10;;;;;;;13.91;77.77;98999.81;2224521;40;20022;-79
2021/05/11 05:22:29;;;;;;;20.05;14.43;;;;;;;13.88;77.82;98991.16;2225502;40;20025;-80
2021/05/11 05:24:05;;;;;;;16.95;12.70;;;;;;;13.91;77.83;98981.88;2226395;40;20056;-80
2021/05/11 05:25:37;;;;;;;17.23;12.55;;;;;;;13.88;77.78;98984.91;2221749;40;20045;-79
2021/05/11 05:27:15;;;;;;;16.95;12.00;;;;;;;13.88;77.76;98990.28;2225264;40;20053;-79
2021/05/11 05:28:46;;;;;;;16.45;12.60;;;;;;;13.96;77.65;98992.03;2222578;40;20034;-79
2021/05/11 05:30:18;;;;;;;19.42;15.38;;;;;;;13.98;77.51;99003.44;2221928;40;20037;-80
2021/05/11 05:31:49;;;;;;;18.48;13.60;;;;;;;13.89;77.50;99000.84;2224259;40;20041;-80
2021/05/11 05:33:29;;;;;;;17.88;13.57;;;;;;;13.84;77.64;98989.84;2216564;40;20026;-80
2021/05/11 05:35:00;;;;;;;18.35;14.10;;;;;;;13.81;77.75;98984.84;2220883;40;20045;-79
2021/05/11 05:36:32;;;;;;;20.02;14.48;;;;;;;13.81;77.93;98974.09;2224220;40;20044;-79
2021/05/11 05:38:04;;;;;;;19.80;13.55;;;;;;;13.77;77.97;98966.63;2223150;40;20029;-79
2021/05/11 05:39:40;;;;;;;16.20;11.32;;;;;;;13.82;77.92;98962.34;2221533;40;20033;-79
2021/05/11 05:41:17;;;;;;;17.02;11.02;;;;;;;13.98;77.63;98963.13;2226770;40;20415;-79
2021/05/11 05:50:29;;;;;;;20.55;12.07;;;;;;;14.15;76.41;98983.31;2152747;41;20051;-82
2021/05/11 06:06:49;;;;;;;;;;;;;;;14.05;76.86;98974.75;2184205;40;20038;-81
2021/05/11 06:13:29;;;;;;;;;;;;;;;14.20;76.44;98977.34;2200646;40;19937;-81
2021/05/11 06:22:22;;;;;;;;;;;;;;;14.31;76.22;98987.56;2199086;40;19946;-81
2021/05/11 06:23:53;;;;;;;;;;;;;;;14.34;75.94;98987.16;2183488;40;20385;-81
2021/05/11 06:25:26;;;;;;;;;;;;;;;14.36;76.02;98992.34;2193830;40;19934;-81
2021/05/11 06:26:57;;;;;;;;;;;;;;;14.34;75.96;98994.41;2185287;40;19938;-81
2021/05/11 06:28:28;;;;;;;;;;;;;;;14.30;75.91;98980.53;2189026;40;20534;-82
2021/05/11 06:29:59;;;;;;;;;;;;;;;14.31;76.15;98989.41;2186951;40;19947;-82
2021/05/11 06:31:32;;;;;;;;;;;;;;;14.32;76.20;98993.78;2189788;40;19946;-82
2021/05/11 06:33:04;;;;;;;;;;;;;;;14.35;75.82;98986.16;2185917;40;19947;-81
2021/05/11 06:36:26;;;;;;;;;;;;;;;14.37;75.86;98971.69;2180665;40;19972;-81
2021/05/11 06:37:59;;;;;;;;;;;;;;;14.41;75.86;98970.25;2182683;40;20216;-81
2021/05/11 06:39:35;;;;;;;;;;;;;;;14.41;75.72;98976.47;2173150;40;19943;-82
2021/05/11 06:43:24;;;;;;;;;;;;;;;14.61;75.38;98963.16;2180903;40;19947;-81
2021/05/11 06:48:50;;;;;;;;;;;;;;;14.86;74.46;98938.50;2175281;40;19935;-81
2021/05/11 06:50:40;;;;;;;;;;;;;;;14.96;73.86;98933.59;2170188;41;19939;-81
2021/05/11 06:54:19;;;;;;;;;;;;;;;15.11;73.13;98933.41;2128630;41;19941;-81
2021/05/11 06:55:51;;;;;;;;;;;;;;;15.19;73.26;98939.66;2168592;41;19939;-81
2021/05/11 06:57:28;;;;;;;;;;;;;;;15.21;73.05;98934.91;2172376;41;19947;-81
2021/05/11 06:58:59;;;;;;;;;;;;;;;15.23;73.06;98932.84;2175890;41;19939;-81
2021/05/11 07:02:02;;;;;;;;;;;;;;;15.17;72.36;98923.69;2170451;41;20253;-81
2021/05/11 07:03:35;;;;;;;;;;;;;;;15.12;72.34;98937.75;2138400;41;19947;-82
2021/05/11 07:05:06;;;;;;;;;;;;;;;15.07;72.70;98951.00;2179355;40;19926;-80
2021/05/11 07:06:39;;;;;;;;;;;;;;;15.02;72.61;98953.44;2183479;40;19942;-80
2021/05/11 07:08:14;;;;;;;;;;;;;;;15.00;72.43;98957.38;2184166;40;19962;-81
2021/05/11 07:14:17;;;;;;;;;;;;;;;15.20;71.96;98949.41;2188870;40;20296;-81
2021/05/11 07:15:50;;;;;;;;;;;;;;;15.22;71.75;98931.16;2186939;40;20452;-81
2021/05/11 07:23:24;;;;;;;;;;;;;;;15.25;71.35;98903.84;2180423;40;19943;-80
2021/05/11 07:24:58;;;;;;;;;;;;;;;15.17;71.30;98909.41;2182580;41;20014;-81
2021/05/11 07:26:30;;;;;;;;;;;;;;;15.14;71.61;98913.34;2180857;41;19943;-81
2021/05/11 07:38:30;;;;;;;;;;;;;;;15.59;70.28;98893.97;2189200;40;19930;-82
2021/05/11 07:40:00;;;;;;;;;;;;;;;15.64;70.28;98896.88;2190540;40;19942;-82
2021/05/11 07:41:32;;;;;;;;;;;;;;;15.71;69.99;98899.59;2188987;40;19949;-84
2021/05/11 07:43:03;;;;;;;;;;;;;;;15.66;69.69;98892.13;2191174;40;19939;-83
2021/05/11 07:44:41;;;;;;;;;;;;;;;15.56;69.58;98886.31;2188999;40;20346;-82
2021/05/11 07:46:52;;;;;;;;;;;;;;;15.49;70.00;98882.78;2189637;40;19944;-82
2021/05/11 07:51:01;;;;;;;;;;;;;;;15.62;69.40;98890.03;2181498;41;19943;-81
2021/05/11 08:05:25;;;;;;;;;;;;;;;16.43;67.08;98877.38;2176119;41;19935;-82
2021/05/11 08:14:31;;;;;;;;;;;;;;;16.21;67.43;98872.22;2171692;41;19994;-82
2021/05/11 08:16:06;;;;;;;;;;;;;;;16.23;67.38;98886.31;2182242;41;19946;-81
2021/05/11 08:17:40;;;;;;;;;;;;;;;16.30;67.32;98887.13;2181720;40;19939;-82
2021/05/11 08:19:16;;;;;;;;;;;;;;;16.35;66.78;98887.31;2184605;40;21050;-82
2021/05/11 08:22:53;;;;;;;;;;;;;;;16.33;66.86;98897.50;2184852;40;19973;-82
2021/05/11 08:28:09;;;;;;;;;;;;;;;16.34;66.40;98904.53;2180908;40;19935;-81
2021/05/11 08:29:40;;;;;;;;;;;;;;;16.47;66.29;98905.56;2186809;40;20362;-84
2021/05/11 08:31:11;;;;;;;;;;;;;;;16.53;65.71;98918.22;2189497;40;19990;-82
2021/05/11 08:34:29;;;;;;;;;;;;;;;16.51;65.40;98920.28;2189853;40;20224;-81
2021/05/11 08:36:01;;;;;;;;;;;;;;;16.51;65.43;98901.41;2187469;40;19994;-82
2021/05/11 08:37:32;;;;;;;;;;;;;;;16.43;65.72;98890.84;2188753;40;19934;-83
2021/05/11 08:39:04;;;;;;;;;;;;;;;16.47;65.94;98892.06;2186547;40;19942;-81
2021/05/11 08:40:34;;;;;;;;;;;;;;;16.53;65.46;98896.63;2188079;40;19969;-84
2021/05/11 08:42:07;;;;;;;;;;;;;;;16.56;65.29;98890.78;2185461;40;20287;-82
2021/05/11 08:43:41;;;;;;;;;;;;;;;16.59;65.60;98890.38;2188511;40;19958;-83
2021/05/11 08:45:14;;;;;;;;;;;;;;;16.59;65.13;98895.78;2184482;40;19935;-83
2021/05/11 08:46:45;;;;;;;;;;;;;;;16.48;65.20;98891.84;2187950;40;19942;-82
2021/05/11 08:48:17;;;;;;;;;;;;;;;16.41;65.09;98891.03;2186279;40;19931;-81
2021/05/11 08:49:49;;;;;;;;;;;;;;;16.26;65.86;98883.19;2188197;40;20101;-81
2021/05/11 08:51:24;;;;;;;;;;;;;;;16.28;65.84;98881.13;2186285;40;19944;-81
2021/05/11 08:53:11;;;;;;;;;;;;;;;16.37;65.63;98884.44;2187928;40;19939;-83
2021/05/11 08:54:51;;;;;;;;;;;;;;;16.54;65.58;98884.78;2187282;40;19946;-80
2021/05/11 09:08:02;;;;;;;;;;;;;;;16.93;63.94;98893.81;2177806;40;19951;-82
2021/05/11 09:09:43;;;;;;;;;;;;;;;16.97;64.00;98886.94;2183836;40;19938;-82
2021/05/11 09:24:20;;;;;;;;;;;;;;;16.82;64.03;98913.31;2186549;40;20185;-82
2021/05/11 09:25:59;;;;;;;;;;;;;;;16.85;63.94;98912.91;2188025;40;19941;-82
2021/05/11 09:27:42;;;;;;;;;;;;;;;16.88;63.67;98907.09;2180380;40;19947;-82
2021/05/11 09:29:26;;;;;;;;;;;;;;;16.91;63.43;98901.25;2182272;41;19935;-83
2021/05/11 09:31:09;;;;;;;;;;;;;;;16.86;63.30;98901.06;2180944;41;19965;-81
2021/05/11 09:32:49;;;;;;;;;;;;;;;16.89;63.71;98899.81;2179899;41;19971;-82
2021/05/11 09:34:26;;;;;;;;;;;;;;;17.02;63.26;98902.50;2182478;41;19967;-81
2021/05/11 09:45:29;;;;;;;;;;;;;;;16.87;63.71;98913.53;2179838;41;19939;-81
2021/05/11 09:51:30;;;;;;;;;;;;;;;16.76;64.22;98924.97;2173333;41;19958;-83
2021/05/11 09:55:00;;;;;;;;;;;;;;;16.82;63.74;98929.53;2180091;41;19942;-81
2021/05/11 09:56:48;;;;;;;;;;;;;;;16.76;64.38;98922.28;2180695;41;19946;-82
2021/05/11 09:58:34;;;;;;;;;;;;;;;16.73;64.17;98914.59;2182296;41;19931;-84
2021/05/11 10:32:34;;;;;;;;;;;;;;;17.30;62.75;98856.22;2191284;40;19938;-84
2021/05/11 10:36:41;;;;;;;;;;;;;;;17.13;63.16;98849.69;2189641;40;19939;-84
2021/05/11 10:42:17;;;;;;;;;;;;;;;17.29;63.19;98849.16;2189457;40;20544;-83
2021/05/11 10:47:32;;;;;;;;;;;;;;;17.23;63.39;98866.25;2187877;40;19942;-83
2021/05/11 10:49:19;;;;;;;;;;;;;;;17.20;63.10;98863.16;2190562;40;20513;-81
2021/05/11 10:50:51;;;;;;;;;;;;;;;17.23;63.59;98870.81;2146676;40;19945;-82
2021/05/11 10:52:33;;;;;;;;;;;;;;;17.27;63.30;98870.19;2185007;40;19994;-82
2021/05/11 10:54:08;;;;;;;;;;;;;;;17.31;63.15;98863.28;2185772;40;19938;-83
2021/05/11 10:55:41;;;;;;;;;;;;;;;17.38;63.01;98857.03;2188462;40;20013;-83
2021/05/11 10:57:29;;;;;;;;;;;;;;;17.45;62.79;98868.59;2186165;40;19939;-82
2021/05/11 10:59:23;;;;;;;;;;;;;;;17.45;62.92;98868.59;2188605;40;19942;-82
2021/05/11 11:00:57;;;;;;;;;;;;;;;17.43;63.04;98859.88;2182888;40;19939;-82
2021/05/11 11:04:20;;;;;;;;;;;;;;;17.56;62.57;98853.56;2193944;40;19930;-84
2021/05/11 11:05:52;;;;;;;;;;;;;;;17.69;62.55;98850.75;2162759;40;20027;-82
2021/05/11 11:07:35;;;;;;;;;;;;;;;17.85;62.00;98862.06;2187395;40;19945;-84
2021/05/11 11:09:08;;;;;;;;;;;;;;;17.95;61.19;98861.56;2192352;40;19938;-82
2021/05/11 11:10:40;;;;;;;;;;;;;;;17.89;61.43;98864.09;2195471;40;19958;-82
2021/05/11 11:12:11;;;;;;;;;;;;;;;17.92;61.65;98868.22;2177714;40;20561;-82
2021/05/11 11:13:43;;;;;;;;;;;;;;;17.86;61.40;98869.94;2184059;40;19958;-83
2021/05/11 11:15:15;;;;;;;;;;;;;;;17.85;61.37;98873.72;2185754;40;19943;-82
2021/05/11 11:16:46;;;;;;;;;;;;;;;17.83;61.39;98869.53;2189310;40;19974;-83
2021/05/11 11:18:21;;;;;;;;;;;;;;;17.83;61.74;98875.81;2187499;40;19939;-82
2021/05/11 11:19:54;;;;;;;;;;;;;;;17.84;61.42;98873.91;2189771;40;19994;-83
2021/05/11 11:21:46;;;;;;;;;;;;;;;17.86;61.57;98875.34;2185469;40;19939;-84
2021/05/11 11:23:33;;;;;;;;;;;;;;;17.83;61.46;98873.09;2183815;40;19943;-83
2021/05/11 11:25:04;;;;;;;;;;;;;;;17.82;61.36;98874.13;2182980;41;19951;-83
2021/05/11 11:26:37;;;;;;;;;;;;;;;17.82;61.49;98873.28;2181705;41;19946;-82
2021/05/11 11:28:07;;;;;;;;;;;;;;;17.86;61.35;98875.34;2182505;40;19943;-83
2021/05/11 11:29:40;;;;;;;;;;;;;;;17.91;61.22;98878.22;2179905;41;20016;-83
2021/05/11 11:31:21;;;;;;;;;;;;;;;17.97;61.27;98879.25;2182861;41;19983;-83
2021/05/11 11:33:01;;;;;;;;;;;;;;;18.03;61.19;98870.25;2180272;41;19946;-82
2021/05/11 11:34:33;;;;;;;;;;;;;;;18.13;60.72;98871.59;2182917;41;19939;-82
2021/05/11 11:36:27;;;;;;;;;;;;;;;18.11;60.23;98865.59;2181270;41;19946;-82
2021/05/11 11:37:58;;;;;;;;;;;;;;;18.14;60.54;98865.97;2189225;40;19943;-84
2021/05/11 11:39:31;;;;;;;;;;;;;;;18.22;60.06;98856.75;2186623;40;19945;-82
2021/05/11 11:41:03;;;;;;;;;;;;;;;18.30;59.88;98852.94;2188727;40;20251;-82
2021/05/11 11:42:37;;;;;;;;;;;;;;;18.33;59.87;98866.81;2186841;40;20339;-83